Time;durP1;ratioP1;P1;durP2;ratioP2;P2;SDS_P1;SDS_P2;PMS_P1;PMS_P2;Temp;Humidity;BMP_temperature;BMP_pressure;BME280_temperature;BME280_humidity;BME280_pressure;Samples;Min_cycle;Max_cycle;Signal;HPM_P1;HPM_P2
2022/05/22 00:00:22;;;;;;;13.38;7.88;;;;;;;;;;5284090;28;20027;-68
2022/05/22 00:02:53;;;;;;;21.42;10.18;;;;;;;;;;5283714;28;20013;-68
2022/05/22 00:05:25;;;;;;;26.42;13.88;;;;;;;;;;5284110;28;20070;-69
2022/05/22 00:07:56;;;;;;;23.30;12.07;;;;;;;;;;5284652;28;20067;-68
2022/05/22 00:10:27;;;;;;;22.20;11.60;;;;;;;;;;5283146;28;20020;-69
2022/05/22 00:12:58;;;;;;;21.63;10.30;;;;;;;;;;5284402;28;20031;-69
2022/05/22 00:15:30;;;;;;;18.42;9.43;;;;;;;;;;5283884;28;20016;-69
2022/05/22 00:18:01;;;;;;;16.83;8.55;;;;;;;;;;5283796;28;20024;-70
2022/05/22 00:20:32;;;;;;;18.90;8.07;;;;;;;;;;5283933;28;20287;-70
2022/05/22 00:23:03;;;;;;;19.03;8.23;;;;;;;;;;5283714;28;20856;-70
2022/05/22 00:25:34;;;;;;;18.80;7.47;;;;;;;;;;5282972;28;20603;-69
2022/05/22 00:28:05;;;;;;;16.38;5.85;;;;;;;;;;5284165;28;20354;-70
2022/05/22 00:30:36;;;;;;;10.68;2.88;;;;;;;;;;5283341;28;20266;-70
2022/05/22 00:33:08;;;;;;;10.02;3.10;;;;;;;;;;5283812;28;20044;-69
2022/05/22 00:35:40;;;;;;;8.30;2.60;;;;;;;;;;5283940;28;20364;-69
2022/05/22 00:38:11;;;;;;;11.55;3.78;;;;;;;;;;5282826;28;20495;-69
2022/05/22 00:40:42;;;;;;;11.82;3.22;;;;;;;;;;5283562;28;20027;-69
2022/05/22 00:43:32;;;;;;;13.13;3.58;;;;;;;;;;5283784;28;20271;-69
2022/05/22 00:46:05;;;;;;;11.00;3.50;;;;;;;;;;5282863;28;20255;-68
2022/05/22 00:48:36;;;;;;;14.60;3.97;;;;;;;;;;5283562;28;20015;-69
2022/05/22 00:51:16;;;;;;;6.63;2.97;;;;;;;;;;5283323;28;20021;-69
2022/05/22 00:53:59;;;;;;;14.10;3.30;;;;;;;;;;5282683;28;20368;-69
2022/05/22 00:56:35;;;;;;;7.95;2.55;;;;;;;;;;5282953;28;20024;-69
2022/05/22 00:59:11;;;;;;;13.52;3.45;;;;;;;;;;5282407;28;20060;-69
2022/05/22 01:01:42;;;;;;;11.77;3.17;;;;;;;;;;5283175;28;20024;-69
2022/05/22 01:04:16;;;;;;;18.80;4.88;;;;;;;;;;5283264;28;20032;-69
2022/05/22 01:06:47;;;;;;;11.20;3.13;;;;;;;;;;5282222;28;20029;-69
2022/05/22 01:09:19;;;;;;;10.48;3.15;;;;;;;;;;5281731;28;20119;-69
2022/05/22 01:11:52;;;;;;;10.65;3.80;;;;;;;;;;5283251;28;20039;-69
2022/05/22 01:14:23;;;;;;;10.35;3.47;;;;;;;;;;5282042;28;20065;-69
2022/05/22 01:16:54;;;;;;;9.32;3.70;;;;;;;;;;5283708;28;20042;-69
2022/05/22 01:19:25;;;;;;;7.60;3.30;;;;;;;;;;5282614;28;20056;-69
2022/05/22 01:22:00;;;;;;;9.85;4.07;;;;;;;;;;5282088;28;20044;-68
2022/05/22 01:24:31;;;;;;;14.32;4.85;;;;;;;;;;5282807;28;20028;-69
2022/05/22 01:27:05;;;;;;;10.05;3.88;;;;;;;;;;5282123;28;20027;-69
2022/05/22 01:29:37;;;;;;;12.15;3.75;;;;;;;;;;5283130;28;20357;-69
2022/05/22 01:32:08;;;;;;;12.35;4.25;;;;;;;;;;5282590;28;20158;-69
2022/05/22 01:34:39;;;;;;;13.38;3.85;;;;;;;;;;5281868;28;20132;-69
2022/05/22 01:37:10;;;;;;;9.68;3.63;;;;;;;;;;5282659;28;20267;-69
2022/05/22 01:39:42;;;;;;;14.25;4.00;;;;;;;;;;5282278;28;20360;-69
2022/05/22 01:42:13;;;;;;;11.90;3.95;;;;;;;;;;5281992;28;20263;-69
2022/05/22 01:44:44;;;;;;;18.13;4.72;;;;;;;;;;5282492;28;20270;-69
2022/05/22 01:47:15;;;;;;;17.70;5.07;;;;;;;;;;5282274;28;20346;-69
2022/05/22 01:49:46;;;;;;;16.08;3.83;;;;;;;;;;5281843;28;20761;-70
2022/05/22 01:52:17;;;;;;;12.77;4.05;;;;;;;;;;5282223;28;20016;-68
2022/05/22 01:54:49;;;;;;;12.18;4.22;;;;;;;;;;5281381;28;20380;-69
2022/05/22 01:57:20;;;;;;;15.60;4.57;;;;;;;;;;5281729;28;20263;-69
2022/05/22 01:59:51;;;;;;;12.70;4.63;;;;;;;;;;5282656;28;20035;-69
2022/05/22 02:02:22;;;;;;;11.98;4.05;;;;;;;;;;5281137;28;20027;-69
2022/05/22 02:04:53;;;;;;;12.57;4.90;;;;;;;;;;5282532;28;20282;-69
2022/05/22 02:10:14;;;;;;;10.13;4.63;;;;;;;;;;5281447;28;20259;-69
2022/05/22 02:12:45;;;;;;;10.30;4.70;;;;;;;;;;5281954;28;20476;-69
2022/05/22 02:15:17;;;;;;;11.02;4.22;;;;;;;;;;5281856;28;20017;-69
2022/05/22 02:17:49;;;;;;;13.43;4.95;;;;;;;;;;5281131;28;20107;-69
2022/05/22 02:20:20;;;;;;;10.65;4.28;;;;;;;;;;5281312;28;20025;-70
2022/05/22 02:22:53;;;;;;;9.95;4.93;;;;;;;;;;5281263;28;20049;-69
2022/05/22 02:25:26;;;;;;;13.23;4.72;;;;;;;;;;5281421;28;20020;-69
2022/05/22 02:27:57;;;;;;;12.38;5.10;;;;;;;;;;5282136;28;20027;-69
2022/05/22 02:30:31;;;;;;;12.40;4.78;;;;;;;;;;5280704;28;20455;-69
2022/05/22 02:33:02;;;;;;;13.70;5.30;;;;;;;;;;5281593;28;20043;-70
2022/05/22 02:35:33;;;;;;;12.77;4.95;;;;;;;;;;5281599;28;20017;-69
2022/05/22 02:38:05;;;;;;;10.57;3.92;;;;;;;;;;5280970;28;20372;-69
2022/05/22 02:40:37;;;;;;;9.45;4.70;;;;;;;;;;5281510;28;20109;-69
2022/05/22 02:43:08;;;;;;;10.90;4.60;;;;;;;;;;5281247;28;20013;-69
2022/05/22 02:45:40;;;;;;;9.10;4.40;;;;;;;;;;5280994;28;20448;-68
2022/05/22 02:48:11;;;;;;;15.23;5.90;;;;;;;;;;5281624;28;20028;-69
2022/05/22 02:50:44;;;;;;;10.57;5.45;;;;;;;;;;5281564;28;20076;-69
2022/05/22 02:53:15;;;;;;;11.32;5.85;;;;;;;;;;5280597;28;20039;-69
2022/05/22 02:55:46;;;;;;;19.50;6.35;;;;;;;;;;5281351;28;20451;-69
2022/05/22 02:58:18;;;;;;;10.88;5.43;;;;;;;;;;5280734;28;20270;-69
2022/05/22 03:00:49;;;;;;;11.95;6.38;;;;;;;;;;5281745;28;20016;-69
2022/05/22 03:03:20;;;;;;;12.05;5.43;;;;;;;;;;5281157;28;20016;-69
2022/05/22 03:08:41;;;;;;;10.82;6.03;;;;;;;;;;5281532;28;20263;-69
2022/05/22 03:11:12;;;;;;;10.38;5.65;;;;;;;;;;5281427;28;20364;-69
2022/05/22 03:13:45;;;;;;;16.38;6.03;;;;;;;;;;5280483;28;20036;-69
2022/05/22 03:16:16;;;;;;;12.38;6.07;;;;;;;;;;5281173;28;20372;-69
2022/05/22 03:18:47;;;;;;;15.40;5.75;;;;;;;;;;5281309;28;20054;-69
2022/05/22 03:21:18;;;;;;;13.10;7.15;;;;;;;;;;5280093;27;20356;-69
2022/05/22 03:23:50;;;;;;;12.65;6.20;;;;;;;;;;5281545;28;20777;-69
2022/05/22 03:26:22;;;;;;;17.90;6.85;;;;;;;;;;5279963;28;20027;-70
2022/05/22 03:28:53;;;;;;;13.40;5.38;;;;;;;;;;5281302;28;20025;-70
2022/05/22 03:31:24;;;;;;;15.45;7.35;;;;;;;;;;5280567;28;20067;-70
2022/05/22 03:33:55;;;;;;;13.45;6.20;;;;;;;;;;5284269;28;20024;-69
2022/05/22 03:36:26;;;;;;;16.40;6.22;;;;;;;;;;5284679;28;20027;-70
2022/05/22 03:38:58;;;;;;;11.43;6.07;;;;;;;;;;5285291;28;20054;-70
2022/05/22 03:41:29;;;;;;;13.43;5.80;;;;;;;;;;5283691;28;20048;-70
2022/05/22 03:44:00;;;;;;;13.43;6.25;;;;;;;;;;5285127;28;20851;-70
2022/05/22 03:46:32;;;;;;;11.85;6.47;;;;;;;;;;5284986;28;20266;-69
2022/05/22 03:49:03;;;;;;;13.30;5.53;;;;;;;;;;5284320;28;20021;-69
2022/05/22 03:51:34;;;;;;;12.18;5.88;;;;;;;;;;5284663;28;20024;-70
2022/05/22 03:54:06;;;;;;;9.57;4.82;;;;;;;;;;5284606;28;20038;-70
2022/05/22 03:56:38;;;;;;;12.98;5.65;;;;;;;;;;5284052;28;20247;-70
2022/05/22 03:59:09;;;;;;;12.98;6.20;;;;;;;;;;5284450;28;20017;-70
2022/05/22 04:01:40;;;;;;;14.25;5.95;;;;;;;;;;5283946;28;20020;-69
2022/05/22 04:04:11;;;;;;;12.80;6.38;;;;;;;;;;5284554;28;20266;-69
2022/05/22 04:06:43;;;;;;;12.02;5.63;;;;;;;;;;5284350;28;20033;-69
2022/05/22 04:09:14;;;;;;;9.98;6.40;;;;;;;;;;5283715;28;20672;-70
2022/05/22 04:11:45;;;;;;;16.20;6.82;;;;;;;;;;5284535;28;20032;-70
2022/05/22 04:14:19;;;;;;;15.90;7.18;;;;;;;;;;5284204;28;20108;-70
2022/05/22 04:16:50;;;;;;;14.90;7.32;;;;;;;;;;5283817;28;20267;-70
2022/05/22 04:19:22;;;;;;;15.95;9.00;;;;;;;;;;5284228;28;20150;-70
2022/05/22 04:21:53;;;;;;;18.70;8.25;;;;;;;;;;5284500;28;20063;-70
2022/05/22 04:27:13;;;;;;;16.00;8.40;;;;;;;;;;5284275;28;20626;-70
2022/05/22 04:29:45;;;;;;;14.55;7.85;;;;;;;;;;5283402;28;20024;-69
2022/05/22 04:32:16;;;;;;;16.35;7.88;;;;;;;;;;5283904;28;20350;-70
2022/05/22 04:34:47;;;;;;;12.70;7.70;;;;;;;;;;5283995;28;20028;-69
2022/05/22 04:37:18;;;;;;;14.50;8.05;;;;;;;;;;5282758;28;20019;-70
2022/05/22 04:39:49;;;;;;;17.13;8.88;;;;;;;;;;5283979;28;20027;-69
2022/05/22 04:42:20;;;;;;;16.90;8.43;;;;;;;;;;5283293;28;20275;-70
2022/05/22 04:44:52;;;;;;;19.13;8.60;;;;;;;;;;5281958;28;20379;-69
2022/05/22 04:47:24;;;;;;;14.15;8.68;;;;;;;;;;5283344;28;20263;-70
2022/05/22 04:49:55;;;;;;;16.35;9.15;;;;;;;;;;5283947;28;20091;-69
2022/05/22 04:52:26;;;;;;;17.73;9.13;;;;;;;;;;5282267;28;20017;-70
2022/05/22 04:54:57;;;;;;;13.80;8.82;;;;;;;;;;5283808;28;20488;-69
2022/05/22 04:57:28;;;;;;;14.05;7.85;;;;;;;;;;5283262;28;20266;-69
2022/05/22 05:00:00;;;;;;;15.25;7.93;;;;;;;;;;5283029;28;20313;-70
2022/05/22 05:02:31;;;;;;;13.48;8.00;;;;;;;;;;5283100;28;20030;-69
2022/05/22 05:05:05;;;;;;;17.27;8.65;;;;;;;;;;5282664;28;20032;-69
2022/05/22 05:07:37;;;;;;;15.15;9.32;;;;;;;;;;5283376;28;20358;-69
2022/05/22 05:10:10;;;;;;;15.48;9.30;;;;;;;;;;5283200;28;20099;-69
2022/05/22 05:12:41;;;;;;;14.95;8.20;;;;;;;;;;5282185;28;20056;-69
2022/05/22 05:15:16;;;;;;;15.85;9.02;;;;;;;;;;5282869;28;20055;-69
2022/05/22 05:17:48;;;;;;;17.35;8.48;;;;;;;;;;5283188;28;20157;-69
2022/05/22 05:20:23;;;;;;;13.25;8.15;;;;;;;;;;5281968;28;20099;-69
2022/05/22 05:22:54;;;;;;;13.00;7.78;;;;;;;;;;5283442;28;20049;-69
2022/05/22 05:25:25;;;;;;;16.73;8.50;;;;;;;;;;5282576;28;20044;-69
2022/05/22 05:27:56;;;;;;;11.30;8.15;;;;;;;;;;5282282;28;20849;-70
2022/05/22 05:30:27;;;;;;;12.15;8.65;;;;;;;;;;5282636;28;20275;-69
2022/05/22 05:32:58;;;;;;;13.85;9.13;;;;;;;;;;5282277;28;20384;-70
2022/05/22 05:35:29;;;;;;;14.93;8.93;;;;;;;;;;5282400;28;20263;-69
2022/05/22 05:38:00;;;;;;;15.48;9.43;;;;;;;;;;5282612;28;20273;-69
2022/05/22 05:40:32;;;;;;;15.13;9.10;;;;;;;;;;5281653;28;20270;-69
2022/05/22 05:43:03;;;;;;;12.40;8.50;;;;;;;;;;5282355;28;20271;-70
2022/05/22 05:45:35;;;;;;;14.32;9.05;;;;;;;;;;5282373;28;20460;-70
2022/05/22 05:48:06;;;;;;;17.40;8.65;;;;;;;;;;5281585;28;20047;-69
2022/05/22 05:50:37;;;;;;;14.93;8.93;;;;;;;;;;5282443;28;20204;-70
2022/05/22 05:53:08;;;;;;;13.18;8.77;;;;;;;;;;5282416;28;20029;-70
2022/05/22 05:55:40;;;;;;;19.77;9.27;;;;;;;;;;5281260;28;20017;-70
2022/05/22 05:58:11;;;;;;;24.88;9.10;;;;;;;;;;5282093;28;20020;-69
2022/05/22 06:00:43;;;;;;;20.40;8.50;;;;;;;;;;5282187;28;20020;-70
2022/05/22 06:03:14;;;;;;;12.65;8.35;;;;;;;;;;5281348;28;20306;-69
2022/05/22 06:05:45;;;;;;;12.00;8.65;;;;;;;;;;5282267;28;20020;-70
2022/05/22 06:08:16;;;;;;;11.43;8.23;;;;;;;;;;5281421;28;20281;-70
2022/05/22 06:10:47;;;;;;;13.57;8.73;;;;;;;;;;5281958;28;20254;-70
2022/05/22 06:13:19;;;;;;;13.27;8.82;;;;;;;;;;5281545;28;20167;-70
2022/05/22 06:15:50;;;;;;;14.35;9.00;;;;;;;;;;5281179;28;20811;-69
2022/05/22 06:18:21;;;;;;;14.57;8.35;;;;;;;;;;5281608;28;20275;-70
2022/05/22 06:20:52;;;;;;;14.20;8.77;;;;;;;;;;5282364;28;20074;-70
2022/05/22 06:23:23;;;;;;;13.55;9.00;;;;;;;;;;5280484;28;20793;-70
2022/05/22 06:25:55;;;;;;;14.35;8.32;;;;;;;;;;5281933;28;20345;-70
2022/05/22 06:28:26;;;;;;;14.13;8.27;;;;;;;;;;5281250;28;20309;-70
2022/05/22 06:30:57;;;;;;;10.38;7.82;;;;;;;;;;5270584;28;20543;-70
2022/05/22 06:33:30;;;;;;;12.43;8.30;;;;;;;;;;5265482;28;20303;-70
2022/05/22 06:36:08;;;;;;;13.75;8.80;;;;;;;;;;5259527;28;20050;-70
2022/05/22 06:41:29;;;;;;;12.02;7.85;;;;;;;;;;5263618;28;20017;-70
2022/05/22 06:44:00;;;;;;;15.23;8.23;;;;;;;;;;5259239;28;20013;-71
2022/05/22 06:46:33;;;;;;;16.20;8.32;;;;;;;;;;5259922;28;20033;-70
2022/05/22 06:49:04;;;;;;;13.35;8.38;;;;;;;;;;5260034;28;20263;-70
2022/05/22 06:51:35;;;;;;;13.73;8.05;;;;;;;;;;5258718;28;20028;-70
2022/05/22 06:54:06;;;;;;;15.18;8.48;;;;;;;;;;5259643;28;20040;-70
2022/05/22 06:56:38;;;;;;;10.88;6.93;;;;;;;;;;5259562;28;20362;-70
2022/05/22 06:59:09;;;;;;;15.63;7.93;;;;;;;;;;5258895;28;20266;-69
2022/05/22 07:01:40;;;;;;;11.70;7.95;;;;;;;;;;5259095;28;20742;-70
2022/05/22 07:04:11;;;;;;;11.25;7.47;;;;;;;;;;5258712;28;20298;-69
2022/05/22 07:06:42;;;;;;;11.95;6.72;;;;;;;;;;5260146;28;20100;-69
2022/05/22 07:09:15;;;;;;;11.77;5.95;;;;;;;;;;5263690;28;20108;-69
2022/05/22 07:11:47;;;;;;;11.40;6.40;;;;;;;;;;5263066;28;20017;-69
2022/05/22 07:14:18;;;;;;;12.50;7.13;;;;;;;;;;5263313;28;20104;-69
2022/05/22 07:16:49;;;;;;;15.88;7.53;;;;;;;;;;5264100;28;20428;-70
2022/05/22 07:19:21;;;;;;;10.43;6.45;;;;;;;;;;5262589;28;20268;-69
2022/05/22 07:21:52;;;;;;;12.43;6.88;;;;;;;;;;5267064;28;20294;-71
2022/05/22 07:24:23;;;;;;;12.68;6.57;;;;;;;;;;5283001;28;20342;-70
2022/05/22 07:26:54;;;;;;;12.35;5.68;;;;;;;;;;5283990;28;20060;-70
2022/05/22 07:29:25;;;;;;;10.32;5.78;;;;;;;;;;5283434;28;20621;-70
2022/05/22 07:31:57;;;;;;;14.95;7.22;;;;;;;;;;5284285;28;20613;-70
2022/05/22 07:34:28;;;;;;;14.00;6.15;;;;;;;;;;5282693;28;20024;-70
2022/05/22 07:37:01;;;;;;;13.33;5.27;;;;;;;;;;5284104;28;20020;-69
2022/05/22 07:39:32;;;;;;;11.68;6.40;;;;;;;;;;5283110;28;20302;-73
2022/05/22 07:42:03;;;;;;;8.82;5.05;;;;;;;;;;5283690;28;20059;-73
2022/05/22 07:44:34;;;;;;;11.07;4.97;;;;;;;;;;5283904;28;20020;-72
2022/05/22 07:47:06;;;;;;;10.98;4.78;;;;;;;;;;5282940;28;20020;-72
2022/05/22 07:52:27;;;;;;;11.57;4.13;;;;;;;;;;5282856;28;20028;-72
2022/05/22 07:54:58;;;;;;;14.80;4.43;;;;;;;;;;5283235;28;20028;-72
2022/05/22 07:57:29;;;;;;;9.27;4.37;;;;;;;;;;5283921;28;20091;-73
2022/05/22 08:00:00;;;;;;;10.63;4.32;;;;;;;;;;5283985;28;20275;-72
2022/05/22 08:02:31;;;;;;;7.50;3.55;;;;;;;;;;5283496;28;20036;-73
2022/05/22 08:05:04;;;;;;;7.68;3.25;;;;;;;;;;5284427;28;20024;-72
2022/05/22 08:07:36;;;;;;;6.55;2.65;;;;;;;;;;5283370;28;20123;-75
2022/05/22 08:10:08;;;;;;;9.68;3.10;;;;;;;;;;5284123;28;20365;-71
2022/05/22 08:12:44;;;;;;;9.00;1.52;;;;;;;;;;5283753;28;20543;-71
2022/05/22 08:15:17;;;;;;;12.98;1.83;;;;;;;;;;5282915;28;20016;-71
2022/05/22 08:17:48;;;;;;;9.00;2.08;;;;;;;;;;5283933;28;20032;-71
2022/05/22 08:20:20;;;;;;;8.30;2.03;;;;;;;;;;5283687;28;20037;-71
2022/05/22 08:22:55;;;;;;;11.23;1.65;;;;;;;;;;5283014;28;20049;-70
2022/05/22 08:25:27;;;;;;;8.02;1.58;;;;;;;;;;5283137;28;20020;-70
2022/05/22 08:27:58;;;;;;;6.88;0.90;;;;;;;;;;5283932;28;20488;-69
2022/05/22 08:30:30;;;;;;;6.83;0.67;;;;;;;;;;5282675;28;20036;-70
2022/05/22 08:33:02;;;;;;;6.30;0.80;;;;;;;;;;5283664;28;20298;-70
2022/05/22 08:35:35;;;;;;;6.05;0.70;;;;;;;;;;5283576;28;20096;-70
2022/05/22 08:38:07;;;;;;;4.63;0.82;;;;;;;;;;5283344;28;20074;-70
2022/05/22 08:40:57;;;;;;;5.95;1.00;;;;;;;;;;5283587;28;20036;-70
2022/05/22 08:43:33;;;;;;;4.43;0.55;;;;;;;;;;5282230;28;20430;-71
2022/05/22 08:46:06;;;;;;;7.50;1.45;;;;;;;;;;5283600;28;20025;-70
2022/05/22 08:48:40;;;;;;;6.50;2.08;;;;;;;;;;5283457;28;20438;-70
2022/05/22 08:51:16;;;;;;;6.28;1.55;;;;;;;;;;5282428;28;20021;-69
2022/05/22 08:53:50;;;;;;;9.10;1.90;;;;;;;;;;5283125;28;20422;-71
2022/05/22 08:59:21;;;;;;;9.27;1.80;;;;;;;;;;5283485;28;20032;-73
2022/05/22 09:02:11;;;;;;;7.05;1.90;;;;;;;;;;5283505;28;20029;-71
2022/05/22 09:04:49;;;;;;;5.72;1.65;;;;;;;;;;5282257;28;20013;-73
2022/05/22 09:07:23;;;;;;;7.45;1.15;;;;;;;;;;5282879;28;20395;-72
2022/05/22 09:10:00;;;;;;;7.97;1.90;;;;;;;;;;5283303;28;20098;-73
2022/05/22 09:12:43;;;;;;;6.35;1.42;;;;;;;;;;5281895;28;20079;-71
2022/05/22 09:15:28;;;;;;;7.57;1.58;;;;;;;;;;5282901;28;20036;-72
2022/05/22 09:18:23;;;;;;;6.43;2.10;;;;;;;;;;5282152;28;20061;-74
2022/05/22 09:20:56;;;;;;;6.22;1.95;;;;;;;;;;5277304;28;20491;-72
2022/05/22 09:23:46;;;;;;;10.82;2.22;;;;;;;;;;5281802;28;20100;-72
2022/05/22 09:26:35;;;;;;;8.60;2.20;;;;;;;;;;5281785;28;20107;-73
2022/05/22 09:29:12;;;;;;;7.63;2.80;;;;;;;;;;5282538;28;20410;-73
2022/05/22 09:31:51;;;;;;;7.00;2.13;;;;;;;;;;5282123;28;20348;-72
2022/05/22 09:34:31;;;;;;;6.13;1.80;;;;;;;;;;5281775;28;20609;-72
2022/05/22 09:37:21;;;;;;;6.45;2.17;;;;;;;;;;5282772;28;20480;-71
2022/05/22 09:40:10;;;;;;;7.22;1.75;;;;;;;;;;5281935;28;20027;-72
2022/05/22 09:42:54;;;;;;;7.55;1.67;;;;;;;;;;5282500;28;20095;-71
2022/05/22 09:45:44;;;;;;;3.65;1.35;;;;;;;;;;5281953;28;20036;-72
2022/05/22 09:48:38;;;;;;;7.60;1.50;;;;;;;;;;5281450;28;20024;-69
2022/05/22 09:51:27;;;;;;;5.78;1.23;;;;;;;;;;5282351;28;20391;-71
2022/05/22 09:54:12;;;;;;;10.98;1.95;;;;;;;;;;5281283;28;20063;-71
2022/05/22 09:56:49;;;;;;;8.05;2.33;;;;;;;;;;5281990;28;20016;-71
2022/05/22 09:59:39;;;;;;;5.70;1.88;;;;;;;;;;5281574;28;20024;-71
2022/05/22 10:02:15;;;;;;;8.75;2.15;;;;;;;;;;5281325;28;20029;-71
2022/05/22 10:04:49;;;;;;;6.97;2.17;;;;;;;;;;5281587;28;20027;-71
2022/05/22 10:07:24;;;;;;;5.45;2.00;;;;;;;;;;5280941;28;20020;-71
2022/05/22 10:10:17;;;;;;;7.32;2.10;;;;;;;;;;5282130;28;20032;-71
2022/05/22 10:12:57;;;;;;;5.70;2.30;;;;;;;;;;5281814;28;20545;-70
2022/05/22 10:15:28;;;;;;;6.47;2.38;;;;;;;;;;5280536;28;20447;-71
2022/05/22 10:18:11;;;;;;;10.70;2.77;;;;;;;;;;5282145;28;20052;-70
2022/05/22 10:21:01;;;;;;;7.47;2.70;;;;;;;;;;5281707;28;20083;-71
2022/05/22 10:23:38;;;;;;;8.75;3.10;;;;;;;;;;5280439;28;20442;-70
2022/05/22 10:26:16;;;;;;;7.03;2.20;;;;;;;;;;5281522;28;20030;-70
2022/05/22 10:28:47;;;;;;;;;;;;;;;;;;5280884;28;20082;-69
2022/05/22 10:31:24;;;;;;;6.88;2.58;;;;;;;;;;5281204;28;19905;-69
2022/05/22 10:34:25;;;;;;;7.55;2.13;;;;;;;;;;5281588;28;20071;-70
2022/05/22 10:36:58;;;;;;;8.25;2.40;;;;;;;;;;5271558;28;20071;-69
2022/05/22 10:39:30;;;;;;;8.52;2.38;;;;;;;;;;5281154;28;20017;-70
2022/05/22 10:44:57;;;;;;;6.55;3.15;;;;;;;;;;5281657;28;20066;-70
2022/05/22 10:47:29;;;;;;;5.97;2.33;;;;;;;;;;5281142;28;20074;-70
2022/05/22 10:50:12;;;;;;;8.00;2.90;;;;;;;;;;5280724;28;20021;-70
2022/05/22 10:52:45;;;;;;;6.93;1.98;;;;;;;;;;5281090;28;20032;-70
2022/05/22 10:55:24;;;;;;;5.50;2.00;;;;;;;;;;5281307;28;20033;-70
2022/05/22 10:57:57;;;;;;;9.68;2.83;;;;;;;;;;5280644;28;20025;-70
2022/05/22 11:00:28;;;;;;;8.05;1.95;;;;;;;;;;5280812;28;20040;-70
2022/05/22 11:03:09;;;;;;;8.40;2.22;;;;;;;;;;5281873;28;20016;-70
2022/05/22 11:05:48;;;;;;;7.43;1.95;;;;;;;;;;5280516;28;20472;-70
2022/05/22 11:08:28;;;;;;;13.55;2.40;;;;;;;;;;5280805;28;20017;-70
2022/05/22 11:11:13;;;;;;;7.80;2.92;;;;;;;;;;5280461;28;20020;-70
2022/05/22 11:13:45;;;;;;;6.50;2.38;;;;;;;;;;5280753;28;20047;-70
2022/05/22 11:16:34;;;;;;;8.07;2.63;;;;;;;;;;5280849;28;20459;-69
2022/05/22 11:19:05;;;;;;;6.82;2.35;;;;;;;;;;5280581;28;20497;-71
2022/05/22 11:21:52;;;;;;;9.05;2.83;;;;;;;;;;5280953;28;20036;-71
2022/05/22 11:24:36;;;;;;;6.93;2.25;;;;;;;;;;5279056;28;20028;-71
2022/05/22 11:27:24;;;;;;;6.18;1.73;;;;;;;;;;5281284;28;20016;-71
2022/05/22 11:29:56;;;;;;;4.90;1.52;;;;;;;;;;5281381;28;20247;-71
2022/05/22 11:32:36;;;;;;;7.97;2.00;;;;;;;;;;5279877;28;20028;-71
2022/05/22 11:35:25;;;;;;;6.93;2.05;;;;;;;;;;5281345;28;20432;-70
2022/05/22 11:37:56;;;;;;;6.35;1.95;;;;;;;;;;5281263;28;20467;-72
2022/05/22 11:40:32;;;;;;;8.80;1.70;;;;;;;;;;5280259;28;20055;-71
2022/05/22 11:43:16;;;;;;;7.35;2.15;;;;;;;;;;5281071;28;20069;-72
2022/05/22 11:46:05;;;;;;;10.95;1.88;;;;;;;;;;5280208;28;20016;-71
2022/05/22 11:48:46;;;;;;;5.93;1.52;;;;;;;;;;5280803;28;20021;-71
2022/05/22 11:51:21;;;;;;;6.03;1.67;;;;;;;;;;5280990;28;20013;-71
2022/05/22 11:54:12;;;;;;;8.25;1.63;;;;;;;;;;5282381;28;20037;-70
2022/05/22 11:56:55;;;;;;;6.97;2.50;;;;;;;;;;5284774;28;20479;-71
2022/05/22 11:59:49;;;;;;;7.88;2.45;;;;;;;;;;5284239;28;20016;-71
2022/05/22 12:02:35;;;;;;;7.85;3.33;;;;;;;;;;5284508;28;20083;-71
2022/05/22 12:05:24;;;;;;;7.88;3.72;;;;;;;;;;5284793;28;20396;-70
2022/05/22 12:07:58;;;;;;;7.50;3.30;;;;;;;;;;5283941;28;20027;-71
2022/05/22 12:10:31;;;;;;;13.45;3.08;;;;;;;;;;5284171;28;20107;-70
2022/05/22 12:13:29;;;;;;;10.88;3.30;;;;;;;;;;5284544;28;20423;-71
2022/05/22 12:16:06;;;;;;;7.95;2.95;;;;;;;;;;5281420;28;20395;-71
2022/05/22 12:18:40;;;;;;;9.68;2.83;;;;;;;;;;5284268;28;20021;-70
2022/05/22 12:21:16;;;;;;;9.55;3.17;;;;;;;;;;5283777;28;20150;-70
2022/05/22 12:23:50;;;;;;;9.13;2.83;;;;;;;;;;5284144;28;20048;-69
2022/05/22 12:26:23;;;;;;;11.23;3.20;;;;;;;;;;5283781;28;20024;-69
2022/05/22 12:29:00;;;;;;;8.20;2.88;;;;;;;;;;5283286;28;20021;-71
2022/05/22 12:31:41;;;;;;;10.20;3.08;;;;;;;;;;5283863;28;20020;-71
2022/05/22 12:34:18;;;;;;;8.27;2.53;;;;;;;;;;5283969;28;20517;-72
2022/05/22 12:36:50;;;;;;;9.75;2.47;;;;;;;;;;5283355;28;20468;-70
2022/05/22 12:39:24;;;;;;;7.15;3.10;;;;;;;;;;5283645;28;20028;-71
2022/05/22 12:42:05;;;;;;;8.68;2.67;;;;;;;;;;5283372;28;20044;-70
2022/05/22 12:44:36;;;;;;;6.75;2.28;;;;;;;;;;5283687;28;20065;-71
2022/05/22 12:47:13;;;;;;;8.05;3.47;;;;;;;;;;5283582;28;20016;-71
2022/05/22 12:49:55;;;;;;;8.38;2.53;;;;;;;;;;5282771;28;20483;-71
2022/05/22 12:52:31;;;;;;;9.18;2.60;;;;;;;;;;5283351;28;20016;-70
2022/05/22 12:55:09;;;;;;;7.18;2.10;;;;;;;;;;5283660;28;20150;-70
2022/05/22 12:57:50;;;;;;;7.32;2.47;;;;;;;;;;5282819;28;20395;-70
2022/05/22 13:00:45;;;;;;;7.03;2.20;;;;;;;;;;5283066;28;20082;-71
2022/05/22 13:03:22;;;;;;;11.60;2.40;;;;;;;;;;5276599;28;20091;-71
2022/05/22 13:06:05;;;;;;;8.57;2.70;;;;;;;;;;5282508;28;20024;-71
2022/05/22 13:08:39;;;;;;;6.50;2.60;;;;;;;;;;5283250;28;20025;-71
2022/05/22 13:11:15;;;;;;;10.52;3.08;;;;;;;;;;5282216;28;20033;-71
2022/05/22 13:13:50;;;;;;;5.47;2.10;;;;;;;;;;5282981;28;20043;-70
2022/05/22 13:16:26;;;;;;;6.68;2.20;;;;;;;;;;5282509;28;20027;-69
2022/05/22 13:18:57;;;;;;;7.97;2.25;;;;;;;;;;5282601;28;20081;-70
2022/05/22 13:21:35;;;;;;;7.93;2.80;;;;;;;;;;5282208;28;20020;-70
2022/05/22 13:24:27;;;;;;;7.63;2.00;;;;;;;;;;5281876;28;20282;-70
2022/05/22 13:27:01;;;;;;;7.65;2.63;;;;;;;;;;5282313;28;20032;-71
2022/05/22 13:29:46;;;;;;;9.93;2.83;;;;;;;;;;5282347;28;20020;-71
2022/05/22 13:32:19;;;;;;;6.97;2.50;;;;;;;;;;5281889;28;20020;-70
2022/05/22 13:34:53;;;;;;;7.47;2.42;;;;;;;;;;5282693;28;20028;-71
2022/05/22 13:37:29;;;;;;;9.68;2.30;;;;;;;;;;5282015;28;20028;-70
2022/05/22 13:40:06;;;;;;;5.80;1.95;;;;;;;;;;5281890;28;20085;-70
2022/05/22 13:42:56;;;;;;;7.32;1.80;;;;;;;;;;5282438;28;20535;-69
2022/05/22 13:45:28;;;;;;;5.47;2.00;;;;;;;;;;5281192;28;20025;-70
2022/05/22 13:48:09;;;;;;;6.55;1.33;;;;;;;;;;5282516;28;20434;-69
2022/05/22 13:54:07;;;;;;;9.95;1.95;;;;;;;;;;5281457;28;20036;-70
2022/05/22 13:56:42;;;;;;;7.20;2.05;;;;;;;;;;5281898;28;20029;-72
2022/05/22 13:59:21;;;;;;;7.88;2.25;;;;;;;;;;5280946;28;20106;-72
2022/05/22 14:01:53;;;;;;;7.95;1.80;;;;;;;;;;5282450;28;20039;-71
2022/05/22 14:04:25;;;;;;;7.25;2.55;;;;;;;;;;5281453;28;20017;-71
2022/05/22 14:06:57;;;;;;;7.32;2.40;;;;;;;;;;5281728;28;20032;-71
2022/05/22 14:09:30;;;;;;;6.35;2.00;;;;;;;;;;5281884;28;20016;-72
2022/05/22 14:12:01;;;;;;;7.65;2.60;;;;;;;;;;5281883;28;20021;-71
2022/05/22 14:14:33;;;;;;;7.82;2.15;;;;;;;;;;5280776;28;20479;-71
2022/05/22 14:17:08;;;;;;;8.23;2.80;;;;;;;;;;5281415;28;20150;-72
2022/05/22 14:19:40;;;;;;;11.52;2.90;;;;;;;;;;5281491;28;20020;-71
2022/05/22 14:22:14;;;;;;;8.80;2.40;;;;;;;;;;5280595;28;20044;-72
2022/05/22 14:24:52;;;;;;;8.65;1.90;;;;;;;;;;5281617;28;20035;-70
2022/05/22 14:27:28;;;;;;;8.30;1.98;;;;;;;;;;5280591;28;20125;-71
2022/05/22 14:30:05;;;;;;;6.95;2.70;;;;;;;;;;5282142;28;20020;-71
2022/05/22 14:32:37;;;;;;;6.93;2.00;;;;;;;;;;5281584;28;20356;-71
2022/05/22 14:35:20;;;;;;;9.98;2.10;;;;;;;;;;5280737;28;20043;-72
2022/05/22 14:37:52;;;;;;;9.00;2.53;;;;;;;;;;5281737;28;20030;-72
2022/05/22 14:40:29;;;;;;;7.37;2.03;;;;;;;;;;5281304;28;20468;-72
2022/05/22 14:43:03;;;;;;;10.00;2.10;;;;;;;;;;5281005;28;20626;-71
2022/05/22 14:45:35;;;;;;;8.23;2.45;;;;;;;;;;5281341;28;20020;-71
2022/05/22 14:48:08;;;;;;;6.15;1.33;;;;;;;;;;5281254;28;20093;-72
2022/05/22 14:50:43;;;;;;;16.10;1.95;;;;;;;;;;5280821;28;20020;-71
2022/05/22 14:53:18;;;;;;;10.18;1.67;;;;;;;;;;5281408;28;20375;-71
2022/05/22 14:55:51;;;;;;;5.95;1.27;;;;;;;;;;5281239;28;20031;-71
2022/05/22 14:58:24;;;;;;;7.03;1.17;;;;;;;;;;5281342;28;20025;-70
2022/05/22 15:00:57;;;;;;;8.60;1.63;;;;;;;;;;5281852;28;20494;-71
2022/05/22 15:03:35;;;;;;;6.30;1.55;;;;;;;;;;5280626;28;20028;-71
2022/05/22 15:06:06;;;;;;;9.10;2.60;;;;;;;;;;5281672;28;20048;-70
2022/05/22 15:08:49;;;;;;;7.27;1.63;;;;;;;;;;5281590;28;20197;-71
2022/05/22 15:11:23;;;;;;;4.75;1.35;;;;;;;;;;5280327;28;20238;-72
2022/05/22 15:13:59;;;;;;;5.85;1.55;;;;;;;;;;5281570;28;20029;-71
2022/05/22 15:16:38;;;;;;;5.60;1.17;;;;;;;;;;5280690;28;20392;-71
2022/05/22 15:25:27;;;;;;;8.65;1.60;;;;;;;;;;5281328;28;19923;-70
2022/05/22 15:27:52;;;;;;;4.85;1.10;;;;;;;;;;5281446;28;20033;-70
2022/05/22 15:30:26;;;;;;;3.55;1.00;;;;;;;;;;5285043;28;20016;-70
2022/05/22 15:33:02;;;;;;;7.88;1.30;;;;;;;;;;5284909;28;20044;-71
2022/05/22 15:35:34;;;;;;;9.00;1.67;;;;;;;;;;5284932;28;20032;-70
2022/05/22 15:38:05;;;;;;;7.50;1.60;;;;;;;;;;5284549;28;20016;-69
2022/05/22 15:40:44;;;;;;;5.15;1.65;;;;;;;;;;5285098;28;20047;-70
2022/05/22 15:43:24;;;;;;;5.20;1.30;;;;;;;;;;5285027;28;20071;-71
2022/05/22 15:46:22;;;;;;;5.03;1.30;;;;;;;;;;5284611;28;20024;-71
2022/05/22 15:51:58;;;;;;;6.80;1.20;;;;;;;;;;5284462;28;20028;-71